Vonore, TN (37885)

7:37 PM EST on February 12, 2016 (GMT -0500)
APRSWXNET | | Change Station
CLOSE
Current Station
Personal Weather Station
Location: Vonore, TN
Elevation: 1614 ft
Nearby Weather Stations

Elev 1614 ft 35.50 °N, 84.20 °W | Updated 28 minutes ago

Overcast
Overcast
38 °F
Feels Like 38 °F
N
1
Wind Variable Wind from NNE
Gusts 4.0 mph

Today
High -- | Low -- °F
--% Chance of Precip.
Yesterday
High -- | Low -- °F
Precip. -- in
Pressure 30.21 in
Visibility 10.0 miles
Clouds Overcast 4000 ft
Windchill 38 °F
Dew Point 31 °F
Humidity 76%
Rainfall in
Snow Depth Not available.
7:26 AM 6:15 PM
Waxing Crescent, 25% visible
METAR KTYS 122353Z 29009KT 10SM OVC040 02/M03 A3019 RMK AO2 SLP230 60000 T00171028 10022 20000 53025
Pressure 30.21 in
Visibility 10.0 miles
Clouds Overcast 4000 ft
Windchill 38 °F
Dew Point 31 °F
Humidity 76%
Rainfall in
Snow Depth Not available.
7:26 AM 6:15 PM
Waxing Crescent, 25% visible
METAR KTYS 122353Z 29009KT 10SM OVC040 02/M03 A3019 RMK AO2 SLP230 60000 T00171028 10022 20000 53025

10-Day Weather Forecast

Almanac

Astronomy

Feb. 12, 2016 Rise Set
Actual Time
Civil Twilight
Nautical Twilight
Astronomical Twilight
Moon
Length of Visible Light
Length of Day
Tomorrow will be .
, % of the Moon is Illuminated

Today's Extremes

State Highs State Lows

Community

WunderPhotos

Upload Photos

1,892,444 photos uploaded!

WunderBlog® & News

Nearby

Air Quality

  Air Quality AQ Index Pollutant
Not available.

Snow Depth

Station Depth Elevation

Earthquake Activity

City Distance Mag. Time & Date
Minimum magnitude displayed is 2.5.

Coastal Water Temperatures

Place Temperature

Stations

Nearby Weather Stations

Station Location Temp. Windchill Dew Point Humidity Wind Precip. Elev Updated Type
                   

Watches & Warnings

There are currently no watches in effect.